Time;durP1;ratioP1;P1;durP2;ratioP2;P2;SDS_P1;SDS_P2;PMS_P1;PMS_P2;Temp;Humidity;BMP_temperature;BMP_pressure;BME280_temperature;BME280_humidity;BME280_pressure;Samples;Min_cycle;Max_cycle;Signal;HPM_P1;HPM_P2
2021/10/30 00:01:21;;;;;;;71.57;44.20;;;;;;;2.90;100.00;102563.16;1681572;84;21664;-82
2021/10/30 00:03:50;;;;;;;79.92;46.65;;;;;;;2.83;100.00;102561.11;1699525;83;21650;-82
2021/10/30 00:06:18;;;;;;;76.92;47.70;;;;;;;2.78;100.00;102559.01;1699395;83;21101;-82
2021/10/30 00:08:46;;;;;;;89.83;47.70;;;;;;;2.76;100.00;102556.05;1698991;83;21073;-81
2021/10/30 00:11:14;;;;;;;78.10;48.02;;;;;;;2.76;100.00;102558.20;1699567;84;21081;-82
2021/10/30 00:13:41;;;;;;;78.28;49.85;;;;;;;2.76;100.00;102558.20;1699280;83;21874;-81
2021/10/30 00:16:08;;;;;;;74.95;47.08;;;;;;;2.76;100.00;102558.20;1681764;83;21089;-82
2021/10/30 00:18:35;;;;;;;77.50;49.48;;;;;;;2.75;100.00;102559.06;1699212;84;21023;-82
2021/10/30 00:21:03;;;;;;;76.45;49.93;;;;;;;2.71;100.00;102553.97;1699912;83;21034;-82
2021/10/30 00:23:30;;;;;;;72.03;47.95;;;;;;;2.71;100.00;102553.97;1698696;83;21066;-82
2021/10/30 00:25:57;;;;;;;72.32;48.50;;;;;;;2.68;100.00;102558.27;1699557;84;21165;-82
2021/10/30 00:28:24;;;;;;;77.95;48.80;;;;;;;2.82;100.00;102556.83;1682111;84;21011;-82
2021/10/30 00:30:51;;;;;;;78.25;51.55;;;;;;;2.82;100.00;102556.83;1704652;83;21029;-82
2021/10/30 00:33:18;;;;;;;70.55;46.55;;;;;;;2.97;100.00;102560.09;1713229;83;21120;-82
2021/10/30 00:35:46;;;;;;;71.10;47.67;;;;;;;3.05;100.00;102560.85;1710913;83;21101;-82
2021/10/30 00:38:14;;;;;;;73.12;45.30;;;;;;;3.03;100.00;102562.59;1706869;83;21151;-82
2021/10/30 00:40:42;;;;;;;74.22;47.53;;;;;;;2.99;100.00;102563.51;1706953;84;20967;-82
2021/10/30 00:43:09;;;;;;;76.42;46.05;;;;;;;2.99;100.00;102568.66;1706975;83;21022;-82
2021/10/30 00:45:36;;;;;;;68.57;44.75;;;;;;;3.07;100.00;102561.69;1706807;84;21571;-82
2021/10/30 00:48:03;;;;;;;69.62;46.25;;;;;;;3.11;100.00;102565.08;1706982;84;21022;-82
2021/10/30 00:50:31;;;;;;;69.03;45.78;;;;;;;3.11;100.00;102558.64;1706853;84;21776;-82
2021/10/30 00:52:59;;;;;;;66.57;45.92;;;;;;;3.10;100.00;102562.08;1707153;84;21524;-82
2021/10/30 00:55:30;;;;;;;77.27;48.35;;;;;;;3.07;100.00;102568.13;1706953;84;21026;-82
2021/10/30 00:57:59;;;;;;;67.82;49.00;;;;;;;3.06;100.00;102565.13;1706733;84;21078;-82
2021/10/30 01:00:27;;;;;;;79.15;50.28;;;;;;;3.05;100.00;102567.28;1707048;84;21066;-83
2021/10/30 01:02:54;;;;;;;85.35;49.98;;;;;;;3.03;100.00;102567.73;1707096;82;21203;-83
2021/10/30 01:05:21;;;;;;;74.17;48.87;;;;;;;3.02;100.00;102560.04;1706772;84;21682;-82
2021/10/30 01:07:50;;;;;;;69.07;48.20;;;;;;;2.97;100.00;102560.93;1706807;83;21033;-83
2021/10/30 01:10:20;;;;;;;74.20;49.42;;;;;;;2.97;100.00;102561.38;1706934;84;22038;-82
2021/10/30 01:12:49;;;;;;;77.00;50.78;;;;;;;2.94;100.00;102554.55;1689722;84;21065;-82
2021/10/30 01:15:16;;;;;;;78.22;48.35;;;;;;;3.06;100.00;102554.84;1699997;84;21818;-83
2021/10/30 01:17:43;;;;;;;74.03;48.58;;;;;;;3.06;100.00;102554.84;1646412;85;21915;-83
2021/10/30 01:20:23;;;;;;;66.85;45.33;;;;;;;3.05;100.00;102556.98;1667370;85;21539;-83
2021/10/30 01:22:51;;;;;;;76.77;46.20;;;;;;;2.90;100.00;102565.73;1713539;83;21085;-83
2021/10/30 01:25:23;;;;;;;67.42;46.28;;;;;;;2.90;100.00;102565.73;1713175;83;21069;-82
2021/10/30 01:27:52;;;;;;;68.42;46.45;;;;;;;2.87;100.00;102563.63;1713346;83;21138;-82
2021/10/30 01:30:21;;;;;;;68.12;46.20;;;;;;;2.73;100.00;102565.94;1712949;83;21025;-82
2021/10/30 01:32:55;;;;;;;65.83;45.05;;;;;;;2.73;100.00;102565.94;1715288;82;21112;-82
2021/10/30 01:35:43;;;;;;;76.75;49.80;;;;;;;2.66;100.00;102563.86;1682612;81;21012;-83
2021/10/30 01:38:12;;;;;;;75.95;49.13;;;;;;;2.60;100.00;102573.38;1664500;84;21058;-82
2021/10/30 01:40:49;;;;;;;68.67;46.15;;;;;;;2.56;100.00;102571.27;1696237;84;21161;-83
2021/10/30 01:43:19;;;;;;;104.47;46.40;;;;;;;2.53;100.00;102574.70;1695050;82;21063;-82
2021/10/30 01:45:48;;;;;;;76.80;45.08;;;;;;;2.53;100.00;102577.27;1678912;84;21130;-83
2021/10/30 01:48:17;;;;;;;62.15;44.60;;;;;;;2.55;100.00;102580.27;1648603;85;21055;-82
2021/10/30 01:50:44;;;;;;;69.95;47.40;;;;;;;2.55;100.00;102586.70;1677811;85;21040;-83
2021/10/30 01:53:11;;;;;;;73.97;48.20;;;;;;;2.48;100.00;102579.50;1678655;85;21155;-82
2021/10/30 01:55:40;;;;;;;72.92;48.85;;;;;;;2.42;100.00;102580.81;1677279;82;21059;-82
2021/10/30 01:58:08;;;;;;;72.50;48.45;;;;;;;2.38;100.00;102579.16;1677400;85;21101;-82
2021/10/30 02:00:36;;;;;;;70.45;47.27;;;;;;;2.37;100.00;102575.71;1677826;84;21031;-83
2021/10/30 02:03:03;;;;;;;75.62;48.63;;;;;;;2.37;100.00;102574.42;1696759;83;21056;-82
2021/10/30 02:05:31;;;;;;;71.07;49.27;;;;;;;2.35;100.00;102577.47;1699059;81;21160;-82
2021/10/30 02:07:59;;;;;;;75.83;50.08;;;;;;;2.34;100.00;102578.33;1677677;83;21105;-82
2021/10/30 02:10:25;;;;;;;75.50;49.55;;;;;;;2.36;100.00;102580.47;1708876;83;21081;-82
2021/10/30 02:12:54;;;;;;;74.82;49.27;;;;;;;2.37;100.00;102580.86;1709681;83;21091;-83
2021/10/30 02:15:21;;;;;;;74.97;48.73;;;;;;;2.44;100.00;102582.95;1709563;83;21824;-82
2021/10/30 02:17:49;;;;;;;79.87;49.23;;;;;;;2.48;100.00;102576.48;1710197;83;21150;-83
2021/10/30 02:20:16;;;;;;;67.12;47.55;;;;;;;2.48;100.00;102576.48;1709930;83;21598;-82
2021/10/30 02:22:43;;;;;;;71.28;48.80;;;;;;;2.49;100.00;102586.31;1709770;83;21101;-82
2021/10/30 02:25:11;;;;;;;72.97;51.13;;;;;;;2.43;100.00;102579.54;1710045;83;21062;-81
2021/10/30 02:27:38;;;;;;;69.25;50.55;;;;;;;2.39;100.00;102585.56;1679879;83;21084;-82
2021/10/30 02:30:09;;;;;;;71.07;51.07;;;;;;;2.32;100.00;102584.75;1710313;83;21117;-81
2021/10/30 02:32:36;;;;;;;74.90;50.12;;;;;;;2.28;100.00;102595.10;1709882;83;21365;-82
2021/10/30 02:35:04;;;;;;;74.03;49.63;;;;;;;2.21;100.00;102593.01;1709948;83;21555;-81
2021/10/30 02:37:32;;;;;;;80.55;53.28;;;;;;;2.16;100.00;102593.05;1709287;82;21065;-82
2021/10/30 02:39:58;;;;;;;84.25;51.28;;;;;;;2.14;100.00;102594.77;1709846;83;21567;-82
2021/10/30 02:42:26;;;;;;;75.37;51.37;;;;;;;2.16;100.00;102599.47;1709752;83;21129;-82
2021/10/30 02:44:53;;;;;;;76.10;50.78;;;;;;;2.14;100.00;102602.48;1709862;83;21120;-82
2021/10/30 02:47:20;;;;;;;76.82;51.98;;;;;;;2.04;100.00;102606.84;1710338;82;21062;-82
2021/10/30 02:49:47;;;;;;;76.70;54.10;;;;;;;2.04;100.00;102606.84;1678418;83;21025;-82
2021/10/30 02:52:14;;;;;;;82.42;54.55;;;;;;;2.04;100.00;102615.00;1710118;82;21630;-82
2021/10/30 02:54:43;;;;;;;81.97;55.70;;;;;;;2.01;100.00;102618.86;1676466;83;21147;-82
2021/10/30 02:57:10;;;;;;;83.50;57.93;;;;;;;1.97;100.00;102628.31;1667355;84;21053;-82
2021/10/30 02:59:37;;;;;;;131.82;63.70;;;;;;;1.91;100.00;102630.05;1682592;85;21058;-82
2021/10/30 03:02:05;;;;;;;95.60;61.15;;;;;;;1.91;100.00;102630.05;1664243;84;21096;-81
2021/10/30 03:04:32;;;;;;;89.55;60.95;;;;;;;1.91;100.00;102627.08;1668507;85;21609;-82
2021/10/30 03:06:59;;;;;;;95.72;66.20;;;;;;;1.93;100.00;102634.77;1652744;85;21705;-82
2021/10/30 03:09:26;;;;;;;85.55;63.00;;;;;;;1.95;100.00;102636.90;1707830;82;21048;-82
2021/10/30 03:11:53;;;;;;;95.30;66.80;;;;;;;1.98;100.00;102630.02;1717066;81;21074;-82
2021/10/30 03:14:26;;;;;;;86.28;63.48;;;;;;;2.01;100.00;102636.85;1733575;82;20992;-82
2021/10/30 03:16:56;;;;;;;98.42;64.70;;;;;;;2.00;100.00;102634.70;1725983;82;21113;-82
2021/10/30 03:19:23;;;;;;;89.37;61.68;;;;;;;1.99;100.00;102630.86;1710569;83;21108;-83
2021/10/30 03:21:50;;;;;;;94.52;64.37;;;;;;;1.97;100.00;102636.44;1679302;83;21068;-82
2021/10/30 03:24:17;;;;;;;84.05;62.62;;;;;;;1.96;100.00;102632.19;1710591;83;21065;-82
2021/10/30 03:26:44;;;;;;;92.57;63.17;;;;;;;1.96;100.00;102640.73;1710873;82;21038;-82
2021/10/30 03:29:11;;;;;;;88.85;61.73;;;;;;;1.92;100.00;102637.78;1710305;83;21034;-83
2021/10/30 03:31:38;;;;;;;90.10;64.25;;;;;;;1.89;100.00;102634.77;1711774;83;21835;-83
2021/10/30 03:34:05;;;;;;;88.70;61.28;;;;;;;1.88;100.00;102641.21;1718434;83;21029;-82
2021/10/30 03:36:32;;;;;;;123.65;64.55;;;;;;;1.83;100.00;102633.53;1718432;83;21618;-83
2021/10/30 03:39:00;;;;;;;98.07;63.60;;;;;;;1.80;100.00;102637.42;1716703;83;21101;-83
2021/10/30 03:41:27;;;;;;;98.33;65.52;;;;;;;1.86;100.00;102637.38;1713411;83;21303;-84
2021/10/30 03:43:54;;;;;;;113.10;60.78;;;;;;;1.85;100.00;102633.10;1691081;83;21116;-86
2021/10/30 03:46:23;;;;;;;89.62;58.45;;;;;;;1.86;100.00;102634.81;1712587;82;21606;-86
2021/10/30 03:48:50;;;;;;;67.72;52.20;;;;;;;1.88;100.00;102633.06;1712679;83;21590;-83
2021/10/30 03:51:17;;;;;;;81.02;56.48;;;;;;;1.94;100.00;102630.05;1712729;82;21609;-83
2021/10/30 03:53:45;;;;;;;84.35;56.33;;;;;;;1.94;100.00;102637.31;1703507;83;21697;-82
2021/10/30 03:56:12;;;;;;;82.45;54.83;;;;;;;1.95;100.00;102639.02;1689906;83;21884;-83
2021/10/30 03:58:41;;;;;;;76.85;53.00;;;;;;;1.91;100.00;102636.48;1712888;82;21745;-82
2021/10/30 04:01:08;;;;;;;97.25;53.68;;;;;;;1.85;100.00;102647.23;1713207;82;21591;-84
2021/10/30 04:03:35;;;;;;;88.90;51.75;;;;;;;1.71;100.00;102646.46;1692975;82;21033;-82
2021/10/30 04:06:03;;;;;;;78.02;52.75;;;;;;;1.55;100.00;102654.66;1707125;82;21538;-82
2021/10/30 04:08:30;;;;;;;72.00;48.10;;;;;;;1.44;100.00;102648.73;1736730;82;21869;-82
2021/10/30 04:10:57;;;;;;;75.85;50.98;;;;;;;1.29;100.00;102647.91;1740437;81;21085;-82
2021/10/30 04:13:24;;;;;;;72.85;49.27;;;;;;;1.16;100.00;102652.22;1740143;82;21021;-82
2021/10/30 04:15:52;;;;;;;83.78;50.78;;;;;;;0.94;100.00;102656.14;1745921;82;21032;-82
2021/10/30 04:18:19;;;;;;;73.60;45.50;;;;;;;0.74;100.00;102654.88;1746143;81;21581;-83
2021/10/30 04:20:47;;;;;;;66.60;42.80;;;;;;;0.57;100.00;102654.91;1747373;82;21809;-82
2021/10/30 04:23:14;;;;;;;71.65;43.38;;;;;;;0.52;100.00;102657.05;1742259;82;21523;-83
2021/10/30 04:25:41;;;;;;;64.77;42.88;;;;;;;0.50;100.00;102663.87;1735158;82;21104;-83
2021/10/30 04:28:22;;;;;;;64.45;41.25;;;;;;;0.43;100.00;102667.72;1728568;81;21112;-82
2021/10/30 04:30:51;;;;;;;61.73;40.95;;;;;;;0.34;100.00;102658.74;1739464;82;21135;-83
2021/10/30 04:33:19;;;;;;;70.90;42.00;;;;;;;0.30;100.00;102663.02;1739718;81;21098;-83
2021/10/30 04:35:47;;;;;;;65.30;41.70;;;;;;;0.30;100.00;102665.58;1740076;82;21654;-83
2021/10/30 04:38:15;;;;;;;64.22;39.33;;;;;;;0.31;100.00;102667.29;1712120;82;21081;-83
2021/10/30 04:40:42;;;;;;;67.80;41.30;;;;;;;0.35;100.00;102669.87;1737047;81;21713;-83
2021/10/30 04:43:09;;;;;;;61.90;41.25;;;;;;;0.37;100.00;102664.30;1704861;83;21098;-83
2021/10/30 04:45:40;;;;;;;64.00;40.70;;;;;;;0.40;100.00;102664.30;1707835;83;21152;-82
2021/10/30 04:48:07;;;;;;;63.33;42.03;;;;;;;0.44;100.00;102664.75;1708282;83;21082;-82
2021/10/30 04:50:35;;;;;;;67.70;41.95;;;;;;;0.42;100.00;102660.05;1707542;83;21149;-82
2021/10/30 04:53:02;;;;;;;66.82;42.80;;;;;;;0.36;100.00;102665.17;1707633;83;21028;-82
2021/10/30 04:55:29;;;;;;;72.90;41.77;;;;;;;0.30;100.00;102668.14;1692769;84;21082;-83
2021/10/30 04:57:56;;;;;;;68.40;41.73;;;;;;;0.26;100.00;102669.41;1707861;82;21132;-83
2021/10/30 05:00:23;;;;;;;61.75;37.98;;;;;;;0.25;100.00;102671.14;1711516;83;21057;-83
2021/10/30 05:02:51;;;;;;;67.10;39.10;;;;;;;0.24;100.00;102678.39;1712429;83;21041;-82
2021/10/30 05:05:18;;;;;;;61.25;38.28;;;;;;;0.33;100.00;102676.25;1712284;83;21094;-82
2021/10/30 05:07:47;;;;;;;63.65;39.15;;;;;;;0.44;100.00;102677.13;1711521;83;21069;-82
2021/10/30 05:10:13;;;;;;;62.60;40.30;;;;;;;0.53;100.00;102680.11;1711776;83;21921;-83
2021/10/30 05:12:42;;;;;;;67.45;42.80;;;;;;;0.62;100.00;102676.27;1712475;83;21523;-83
2021/10/30 05:15:09;;;;;;;73.70;40.35;;;;;;;0.71;100.00;102678.40;1711515;83;21018;-82
2021/10/30 05:17:38;;;;;;;68.42;44.95;;;;;;;0.77;100.00;102678.39;1711960;82;21069;-83
2021/10/30 05:20:06;;;;;;;74.80;43.95;;;;;;;0.82;100.00;102682.23;1711283;83;21133;-83
2021/10/30 05:22:33;;;;;;;66.65;40.45;;;;;;;0.82;100.00;102680.95;1690212;82;21619;-83
2021/10/30 05:25:00;;;;;;;64.97;40.85;;;;;;;0.83;100.00;102683.53;1714532;82;21029;-83
2021/10/30 05:27:27;;;;;;;68.40;39.95;;;;;;;0.89;100.00;102682.23;1712391;83;21049;-83
2021/10/30 05:29:55;;;;;;;68.70;39.78;;;;;;;0.96;100.00;102688.22;1653985;85;21127;-84
2021/10/30 05:32:22;;;;;;;64.10;39.05;;;;;;;1.02;100.00;102684.36;1655601;85;21484;-83
2021/10/30 05:34:57;;;;;;;58.28;38.25;;;;;;;1.10;100.00;102683.91;1580159;87;21343;-84
2021/10/30 05:37:35;;;;;;;66.25;40.45;;;;;;;1.18;100.00;102689.02;1643704;85;21088;-83
2021/10/30 05:40:07;;;;;;;57.13;37.93;;;;;;;1.25;100.00;102684.28;1653582;85;21506;-84
2021/10/30 05:42:36;;;;;;;61.70;39.88;;;;;;;1.31;100.00;102680.02;1612653;87;21131;-85
2021/10/30 05:45:05;;;;;;;57.53;39.13;;;;;;;1.39;100.00;102692.39;1673266;85;21038;-84
2021/10/30 05:47:35;;;;;;;71.33;42.40;;;;;;;1.48;100.00;102693.65;1656664;84;21796;-84
2021/10/30 05:50:04;;;;;;;65.32;42.25;;;;;;;1.55;100.00;102699.59;1655012;86;21082;-84
2021/10/30 05:52:31;;;;;;;78.95;50.15;;;;;;;1.58;100.00;102703.00;1663704;84;21087;-83
2021/10/30 05:55:00;;;;;;;75.78;48.25;;;;;;;1.61;100.00;102706.43;1675553;85;21057;-85
2021/10/30 05:57:27;;;;;;;92.78;55.45;;;;;;;1.56;100.00;102699.58;1664943;84;21052;-83
2021/10/30 05:59:55;;;;;;;74.27;45.73;;;;;;;1.55;100.00;102697.03;1675282;85;21490;-84
2021/10/30 06:02:22;;;;;;;78.28;48.30;;;;;;;1.52;100.00;102701.75;1654919;85;21026;-83
2021/10/30 06:04:54;;;;;;;87.57;53.48;;;;;;;1.56;100.00;102703.44;1691900;83;36970;-84
2021/10/30 06:07:21;;;;;;;80.92;51.33;;;;;;;1.59;100.00;102707.73;1711031;82;21498;-84
2021/10/30 06:09:48;;;;;;;74.00;48.98;;;;;;;1.62;100.00;102709.42;1714103;83;21033;-84
2021/10/30 06:12:15;;;;;;;88.95;54.85;;;;;;;1.64;100.00;102709.00;1712834;82;21142;-84
2021/10/30 06:14:42;;;;;;;74.05;48.30;;;;;;;1.68;100.00;102708.11;1712874;83;21061;-83
2021/10/30 06:17:09;;;;;;;81.97;49.80;;;;;;;1.74;100.00;102708.08;1708694;82;21079;-84
2021/10/30 06:19:36;;;;;;;85.05;52.90;;;;;;;1.83;100.00;102711.89;1692243;83;21077;-84
2021/10/30 06:22:06;;;;;;;75.55;49.45;;;;;;;1.93;100.00;102716.98;1714682;82;21057;-84
2021/10/30 06:24:33;;;;;;;75.67;48.00;;;;;;;2.01;100.00;102713.95;1708606;83;21198;-85
2021/10/30 06:27:00;;;;;;;104.10;50.50;;;;;;;2.12;100.00;102716.04;1708570;82;21075;-85
2021/10/30 06:29:28;;;;;;;70.57;46.73;;;;;;;2.26;100.00;102717.21;1687776;84;21145;-85
2021/10/30 06:31:55;;;;;;;75.72;46.55;;;;;;;2.41;100.00;102718.84;1708373;84;21066;-83
2021/10/30 06:34:23;;;;;;;74.55;48.83;;;;;;;2.57;100.00;102712.30;1707389;81;21109;-82
2021/10/30 06:36:50;;;;;;;76.10;49.35;;;;;;;2.71;100.00;102709.61;1668253;83;21682;-83
2021/10/30 06:39:17;;;;;;;64.85;44.67;;;;;;;2.82;100.00;102711.23;1712952;83;21071;-83
2021/10/30 06:41:45;;;;;;;77.27;50.40;;;;;;;2.93;100.00;102710.25;1713021;83;21144;-85
2021/10/30 06:44:16;;;;;;;73.37;48.83;;;;;;;3.00;100.00;102701.63;1713109;83;21013;-84
2021/10/30 06:46:44;;;;;;;75.42;46.60;;;;;;;3.10;100.00;102708.82;1708543;83;21051;-83
2021/10/30 06:49:12;;;;;;;77.50;49.63;;;;;;;3.21;100.00;102709.55;1705457;83;21974;-83
2021/10/30 06:51:40;;;;;;;81.28;53.68;;;;;;;3.33;100.00;102707.27;1704944;83;21594;-83
2021/10/30 06:54:07;;;;;;;76.77;50.43;;;;;;;3.43;100.00;102715.77;1704736;83;21030;-83
2021/10/30 06:56:37;;;;;;;71.75;48.55;;;;;;;3.59;100.00;102709.98;1704835;84;21019;-83
2021/10/30 06:59:06;;;;;;;69.90;46.63;;;;;;;3.59;100.00;102709.98;1707774;83;21096;-83
2021/10/30 07:01:35;;;;;;;82.42;49.98;;;;;;;3.69;100.00;102709.01;1704860;83;21127;-84
2021/10/30 07:04:05;;;;;;;85.35;47.53;;;;;;;3.81;100.00;102708.41;1704776;83;21544;-84
2021/10/30 07:06:33;;;;;;;70.83;47.40;;;;;;;3.96;100.00;102705.66;1705195;84;21054;-84
2021/10/30 07:09:01;;;;;;;80.17;46.75;;;;;;;4.14;100.00;102710.12;1671998;82;21057;-84
2021/10/30 07:11:30;;;;;;;112.10;48.68;;;;;;;4.29;100.00;102706.47;1696639;83;21225;-84
2021/10/30 07:13:58;;;;;;;89.05;55.45;;;;;;;4.45;100.00;102700.66;1672080;83;21220;-85
2021/10/30 07:16:27;;;;;;;86.90;50.70;;;;;;;4.62;100.00;102704.23;1704967;83;21065;-84
2021/10/30 07:18:54;;;;;;;84.58;46.55;;;;;;;4.73;100.00;102700.59;1705060;83;21575;-84
2021/10/30 07:21:24;;;;;;;80.25;51.50;;;;;;;4.86;100.00;102705.11;1704946;84;21748;-84
2021/10/30 07:23:54;;;;;;;73.05;50.65;;;;;;;5.00;100.00;102697.55;1704230;83;21006;-84
2021/10/30 07:26:22;;;;;;;71.75;47.23;;;;;;;5.13;100.00;102704.63;1705777;83;21148;-84
2021/10/30 07:28:49;;;;;;;78.90;50.98;;;;;;;5.24;100.00;102700.13;1704917;84;21058;-85
2021/10/30 07:31:16;;;;;;;80.00;53.10;;;;;;;5.34;100.00;102705.50;1697196;83;21131;-84
2021/10/30 07:33:43;;;;;;;80.95;53.63;;;;;;;5.44;100.00;102703.61;1711985;82;21004;-84
2021/10/30 07:36:10;;;;;;;77.25;53.58;;;;;;;5.53;100.00;102703.39;1713236;82;21073;-85
2021/10/30 07:38:37;;;;;;;74.53;51.35;;;;;;;5.62;100.00;102699.79;1704031;83;21571;-84
2021/10/30 07:41:04;;;;;;;76.77;51.08;;;;;;;5.75;100.00;102698.22;1705255;84;21074;-84
2021/10/30 07:43:35;;;;;;;78.55;51.98;;;;;;;5.88;100.00;102694.93;1704895;83;21045;-84
2021/10/30 07:46:03;;;;;;;73.00;50.38;;;;;;;6.01;100.00;102696.38;1705043;83;21176;-84
2021/10/30 07:48:31;;;;;;;82.02;58.80;;;;;;;6.17;100.00;102696.06;1705212;83;21057;-83
2021/10/30 07:50:58;;;;;;;78.45;52.78;;;;;;;6.30;100.00;102689.24;1684276;83;21099;-84
2021/10/30 07:53:25;;;;;;;72.47;49.40;;;;;;;6.44;100.00;102681.61;1671953;82;21057;-84
2021/10/30 07:55:52;;;;;;;69.35;49.85;;;;;;;6.58;100.00;102682.53;1692977;84;21562;-85
2021/10/30 07:58:19;;;;;;;70.30;51.42;;;;;;;6.73;100.00;102678.26;1694516;83;21060;-84
2021/10/30 08:00:47;;;;;;;69.27;47.20;;;;;;;6.90;100.00;102684.73;1692944;83;21061;-84
2021/10/30 08:03:15;;;;;;;63.98;46.77;;;;;;;7.09;100.00;102681.23;1696287;83;21150;-84
2021/10/30 08:05:42;;;;;;;68.15;47.85;;;;;;;7.26;100.00;102680.30;1692416;83;21096;-84
2021/10/30 08:08:09;;;;;;;68.07;47.48;;;;;;;7.42;100.00;102673.38;1690456;83;21661;-85
2021/10/30 08:10:37;;;;;;;65.60;45.98;;;;;;;7.58;100.00;102668.14;1700966;83;21753;-84
2021/10/30 08:13:11;;;;;;;67.17;46.65;;;;;;;7.73;100.00;102670.73;1676262;83;21082;-84
2021/10/30 08:15:39;;;;;;;62.05;44.18;;;;;;;7.88;100.00;102669.43;1701165;83;21182;-84
2021/10/30 08:18:06;;;;;;;59.77;44.23;;;;;;;8.07;100.00;102662.81;1706864;83;21061;-84
2021/10/30 08:20:36;;;;;;;64.00;47.30;;;;;;;8.23;100.00;102658.83;1683559;84;21101;-84
2021/10/30 08:23:03;;;;;;;54.30;43.40;;;;;;;8.41;100.00;102657.36;1705312;83;20994;-84
2021/10/30 08:25:30;;;;;;;61.13;43.87;;;;;;;8.59;100.00;102658.52;1705128;83;21491;-84
2021/10/30 08:27:58;;;;;;;57.62;42.62;;;;;;;8.76;100.00;102657.09;1705056;83;21133;-85
2021/10/30 08:30:25;;;;;;;55.80;42.33;;;;;;;8.91;100.00;102659.61;1705176;83;21069;-84
2021/10/30 08:32:53;;;;;;;53.25;41.60;;;;;;;9.06;100.00;102657.76;1705064;83;21066;-84
2021/10/30 08:35:21;;;;;;;55.98;40.85;;;;;;;9.22;100.00;102654.59;1691208;83;21557;-84
2021/10/30 08:37:49;;;;;;;59.50;42.20;;;;;;;9.37;100.00;102654.03;1713101;83;21005;-84
2021/10/30 08:40:17;;;;;;;62.03;43.52;;;;;;;9.51;100.00;102650.05;1712897;83;21154;-84
2021/10/30 08:42:48;;;;;;;61.92;45.38;;;;;;;9.67;100.00;102652.92;1712970;82;21500;-85
2021/10/30 08:45:18;;;;;;;67.97;47.33;;;;;;;9.95;100.00;102650.08;1713207;83;21567;-85
2021/10/30 08:47:48;;;;;;;65.12;46.05;;;;;;;9.95;100.00;102650.08;1712946;83;21899;-84
2021/10/30 08:50:16;;;;;;;47.50;37.03;;;;;;;10.09;100.00;102650.36;1713164;83;21598;-85
2021/10/30 08:52:43;;;;;;;65.00;45.55;;;;;;;10.26;100.00;102641.02;1712914;83;21133;-84
2021/10/30 08:55:10;;;;;;;68.15;44.13;;;;;;;10.41;100.00;102647.38;1713069;83;21312;-85
2021/10/30 08:57:39;;;;;;;70.80;46.13;;;;;;;10.60;100.00;102650.48;1712827;83;21077;-85
2021/10/30 09:00:21;;;;;;;57.05;41.85;;;;;;;10.77;100.00;102645.88;1691488;83;21120;-85
2021/10/30 09:03:04;;;;;;;53.42;40.17;;;;;;;10.93;100.00;102644.73;1639793;86;21488;-85
2021/10/30 09:05:32;;;;;;;48.68;37.10;;;;;;;11.07;100.00;102641.52;1656801;84;21234;-84
2021/10/30 09:08:04;;;;;;;48.00;35.58;;;;;;;11.19;100.00;102639.64;1693046;84;21034;-85
2021/10/30 09:10:38;;;;;;;38.65;30.55;;;;;;;11.32;100.00;102639.48;1703986;83;21030;-85
2021/10/30 09:13:10;;;;;;;37.00;28.52;;;;;;;11.47;100.00;102631.86;1712624;82;21066;-85
2021/10/30 09:15:47;;;;;;;35.35;27.15;;;;;;;11.60;100.00;102632.13;1697310;83;20978;-85
2021/10/30 09:18:31;;;;;;;40.60;27.95;;;;;;;11.73;100.00;102630.62;1716890;82;22645;-85
2021/10/30 09:21:17;;;;;;;35.92;26.90;;;;;;;11.86;100.00;102624.83;1713023;82;21549;-85
2021/10/30 09:23:54;;;;;;;35.55;25.57;;;;;;;11.98;100.00;102625.08;1713928;82;21780;-85
2021/10/30 09:26:35;;;;;;;30.80;24.47;;;;;;;12.10;100.00;102622.79;1692118;83;21536;-85
2021/10/30 09:29:09;;;;;;;30.10;23.18;;;;;;;12.21;100.00;102626.16;1712773;82;21037;-85
2021/10/30 09:31:37;;;;;;;31.45;23.75;;;;;;;12.28;100.00;102621.02;1698383;83;21957;-85
2021/10/30 09:34:08;;;;;;;31.25;24.35;;;;;;;12.37;100.00;102621.86;1709683;83;21537;-85
2021/10/30 09:36:41;;;;;;;30.57;24.57;;;;;;;12.44;100.00;102613.26;1712935;82;21969;-85
2021/10/30 09:39:15;;;;;;;28.23;21.95;;;;;;;12.52;100.00;102615.46;1713248;82;21047;-85
2021/10/30 09:41:49;;;;;;;22.22;18.15;;;;;;;12.61;100.00;102610.63;1705498;83;21081;-85
2021/10/30 09:44:27;;;;;;;26.35;18.55;;;;;;;12.71;100.00;102610.12;1705106;84;21091;-85
2021/10/30 09:46:59;;;;;;;22.90;18.95;;;;;;;12.81;100.00;102605.27;1705038;84;21470;-85
2021/10/30 09:49:30;;;;;;;18.45;16.15;;;;;;;12.91;100.00;102602.52;1705030;83;21058;-85
2021/10/30 09:52:10;;;;;;;19.70;16.00;;;;;;;13.01;100.00;102602.42;1705408;83;21003;-85
2021/10/30 09:54:46;;;;;;;17.15;15.05;;;;;;;13.13;100.00;102596.98;1705348;83;21305;-85
2021/10/30 09:57:18;;;;;;;17.20;14.90;;;;;;;13.24;100.00;102593.78;1705271;84;21151;-85
2021/10/30 09:59:45;;;;;;;15.10;12.82;;;;;;;13.33;100.00;102593.76;1650899;85;21134;-85
2021/10/30 10:02:13;;;;;;;17.12;11.90;;;;;;;13.39;100.00;102596.05;1653856;85;21061;-85
2021/10/30 10:04:44;;;;;;;16.37;12.33;;;;;;;13.41;100.00;102588.49;1655535;85;21677;-85
2021/10/30 10:07:11;;;;;;;14.98;12.78;;;;;;;13.47;100.00;102591.69;1653985;86;21069;-86
2021/10/30 10:09:40;;;;;;;16.55;12.03;;;;;;;13.53;100.00;102590.89;1656000;85;21119;-85
2021/10/30 10:12:12;;;;;;;13.05;10.72;;;;;;;13.60;100.00;102585.30;1653735;86;21065;-86
2021/10/30 10:14:43;;;;;;;15.28;12.75;;;;;;;13.66;100.00;102582.36;1653933;86;21050;-86
2021/10/30 10:17:11;;;;;;;14.50;12.05;;;;;;;13.71;100.00;102584.23;1654067;86;21038;-86
2021/10/30 10:19:41;;;;;;;13.53;12.05;;;;;;;13.71;100.00;102578.52;1655850;85;21523;-85
2021/10/30 10:22:10;;;;;;;16.67;12.53;;;;;;;13.71;100.00;102579.00;1653733;86;22228;-85
2021/10/30 10:24:38;;;;;;;16.77;13.10;;;;;;;13.69;100.00;102577.79;1654053;86;21069;-85
2021/10/30 10:27:08;;;;;;;18.50;13.38;;;;;;;13.70;100.00;102577.31;1656080;85;21088;-86
2021/10/30 10:29:47;;;;;;;15.83;13.25;;;;;;;13.69;100.00;102573.86;1654000;86;21535;-85
2021/10/30 10:32:26;;;;;;;15.95;13.85;;;;;;;13.69;100.00;102573.00;1666375;85;21060;-85
2021/10/30 10:35:04;;;;;;;15.13;12.80;;;;;;;13.72;100.00;102572.84;1638499;86;21041;-86
2021/10/30 10:37:31;;;;;;;14.25;12.63;;;;;;;13.74;99.70;102563.09;1654576;86;21586;-86
2021/10/30 10:40:03;;;;;;;18.02;13.65;;;;;;;13.76;97.63;102559.10;1633168;86;21195;-85
2021/10/30 10:42:42;;;;;;;17.07;12.58;;;;;;;13.78;96.50;102562.00;1654547;86;21076;-85
2021/10/30 10:45:15;;;;;;;17.25;12.90;;;;;;;13.78;92.35;102564.63;1654685;86;21065;-86
2021/10/30 10:47:49;;;;;;;15.50;11.43;;;;;;;13.76;92.21;102565.16;1654653;85;21914;-85
2021/10/30 10:50:29;;;;;;;16.73;13.68;;;;;;;13.77;92.22;102563.41;1655582;85;21079;-85
2021/10/30 10:53:09;;;;;;;18.75;13.70;;;;;;;13.72;88.50;102564.50;1694268;84;21058;-84
2021/10/30 10:55:50;;;;;;;12.80;11.55;;;;;;;13.71;82.05;102561.98;1695281;83;21059;-86
2021/10/30 10:58:17;;;;;;;;;;;;;;;13.65;83.41;102559.72;1697594;83;21105;-84
2021/10/30 11:01:14;;;;;;;16.05;11.78;;;;;;;13.61;84.74;102563.44;1635323;86;21301;-84
2021/10/30 11:03:44;;;;;;;14.38;11.08;;;;;;;13.54;85.81;102561.17;1676676;84;21119;-84
2021/10/30 11:06:14;;;;;;;13.98;10.88;;;;;;;13.52;88.07;102562.20;1695284;84;21010;-84
2021/10/30 11:08:41;;;;;;;13.25;10.28;;;;;;;13.51;90.50;102553.48;1695233;84;21019;-84
2021/10/30 11:11:31;;;;;;;12.65;10.98;;;;;;;13.51;90.83;102560.50;1694201;83;21007;-84
2021/10/30 11:13:57;;;;;;;14.35;11.55;;;;;;;13.49;91.37;102551.89;1680861;83;21771;-85
2021/10/30 11:16:34;;;;;;;14.25;10.95;;;;;;;13.47;89.05;102553.74;1690664;83;21438;-85
2021/10/30 11:19:14;;;;;;;13.38;10.72;;;;;;;13.43;90.88;102547.84;1687285;83;21120;-84